createdAt,value
2018-07-17T00:01:28.450Z,19.91
2018-07-17T00:03:55.457Z,19.85
2018-07-17T00:06:22.558Z,19.82
2018-07-17T00:08:49.585Z,19.76
2018-07-17T00:11:16.702Z,19.72
2018-07-17T00:13:43.937Z,19.69
2018-07-17T00:16:11.052Z,19.66
2018-07-17T00:18:38.160Z,19.63
2018-07-17T00:21:05.378Z,19.59
2018-07-17T00:23:32.439Z,19.57
2018-07-17T00:25:59.573Z,19.53
2018-07-17T00:28:26.585Z,19.49
2018-07-17T00:30:53.565Z,19.46
2018-07-17T00:33:20.590Z,19.41
2018-07-17T00:35:48.836Z,19.40
2018-07-17T00:38:15.837Z,19.33
2018-07-17T00:40:42.808Z,19.30
2018-07-17T00:43:09.801Z,19.27
2018-07-17T00:45:36.833Z,19.24
2018-07-17T00:48:03.858Z,19.21
2018-07-17T00:50:30.845Z,19.21
2018-07-17T00:52:57.889Z,19.19
2018-07-17T00:55:24.877Z,19.16
2018-07-17T00:57:52.251Z,19.13
2018-07-17T01:00:19.268Z,19.11
2018-07-17T01:02:51.912Z,19.08
2018-07-17T01:05:24.584Z,19.05
2018-07-17T01:07:57.370Z,19.03
2018-07-17T01:10:30.590Z,19.00
2018-07-17T01:12:57.129Z,18.97
2018-07-17T01:15:28.857Z,18.95
2018-07-17T01:17:55.874Z,18.93
2018-07-17T01:20:22.890Z,18.90
2018-07-17T01:22:49.889Z,18.87
2018-07-17T01:25:16.913Z,18.86
2018-07-17T01:27:44.008Z,18.84
2018-07-17T01:30:11.014Z,18.81
2018-07-17T01:32:38.010Z,18.80
2018-07-17T01:35:05.601Z,18.78
2018-07-17T01:38:03.502Z,18.77
2018-07-17T01:40:30.517Z,18.74
2018-07-17T01:42:57.523Z,18.72
2018-07-17T01:45:24.501Z,18.69
2018-07-17T01:47:51.553Z,18.66
2018-07-17T01:50:18.525Z,18.67
2018-07-17T01:52:45.569Z,18.65
2018-07-17T01:55:12.588Z,18.63
2018-07-17T01:57:39.831Z,18.62
2018-07-17T02:00:06.901Z,18.60
2018-07-17T02:02:33.885Z,18.56
2018-07-17T02:05:00.909Z,18.52
2018-07-17T02:07:27.945Z,18.51
2018-07-17T02:09:54.924Z,18.49
2018-07-17T02:12:21.954Z,18.47
2018-07-17T02:14:48.995Z,18.44
2018-07-17T02:17:15.969Z,18.41
2018-07-17T02:19:42.964Z,18.40
2018-07-17T02:22:09.932Z,18.38
2018-07-17T02:24:36.918Z,18.35
2018-07-17T02:27:04.074Z,18.34
2018-07-17T02:29:31.056Z,18.31
2018-07-17T02:31:58.470Z,18.28
2018-07-17T02:34:25.461Z,18.28
2018-07-17T02:36:52.608Z,18.24
2018-07-17T02:39:19.592Z,18.23
2018-07-17T02:41:46.569Z,18.20
2018-07-17T02:44:13.575Z,18.20
2018-07-17T02:46:40.541Z,18.18
2018-07-17T02:49:07.549Z,18.15
2018-07-17T02:51:34.592Z,18.13
2018-07-17T02:54:01.522Z,18.11
2018-07-17T02:56:28.621Z,18.08
2018-07-17T02:58:55.720Z,18.05
2018-07-17T03:01:22.762Z,18.02
2018-07-17T03:03:49.841Z,18.01
2018-07-17T03:06:16.809Z,17.99
2018-07-17T03:08:43.806Z,17.97
2018-07-17T03:11:10.837Z,17.94
2018-07-17T03:13:37.814Z,17.92
2018-07-17T03:16:04.841Z,17.90
2018-07-17T03:18:31.917Z,17.90
2018-07-17T03:20:59.637Z,17.89
2018-07-17T03:23:26.778Z,17.88
2018-07-17T03:25:53.806Z,17.87
2018-07-17T03:28:20.789Z,17.86
2018-07-17T03:30:47.819Z,17.86
2018-07-17T03:33:14.846Z,17.86
2018-07-17T03:35:41.833Z,17.87
2018-07-17T03:38:08.833Z,17.88
2018-07-17T03:40:36.077Z,17.88
2018-07-17T03:43:03.036Z,17.86
2018-07-17T03:45:30.054Z,17.85
2018-07-17T03:47:57.033Z,17.86
2018-07-17T03:50:24.022Z,17.87
2018-07-17T03:52:51.017Z,17.87
2018-07-17T03:55:18.017Z,17.90
2018-07-17T03:57:45.022Z,17.92
2018-07-17T04:00:11.989Z,17.92
2018-07-17T04:02:39.700Z,17.94
2018-07-17T04:05:06.737Z,17.95
2018-07-17T04:07:33.724Z,17.97
2018-07-17T04:10:01.087Z,18.01
2018-07-17T04:12:28.073Z,18.04
2018-07-17T04:14:55.265Z,18.07
2018-07-17T04:17:22.273Z,18.08
2018-07-17T04:19:49.232Z,18.09
2018-07-17T04:22:16.259Z,18.13
2018-07-17T04:24:43.296Z,18.15
2018-07-17T04:27:10.278Z,18.19
2018-07-17T04:29:37.291Z,18.22
2018-07-17T04:32:04.255Z,18.26
2018-07-17T04:34:31.289Z,18.30
2018-07-17T04:36:58.306Z,18.34
2018-07-17T04:39:25.284Z,18.37
2018-07-17T04:41:52.267Z,18.42
2018-07-17T04:44:19.280Z,18.46
2018-07-17T04:46:46.261Z,18.47
2018-07-17T04:49:13.259Z,18.53
2018-07-17T04:51:40.236Z,18.60
2018-07-17T04:54:07.245Z,18.62
2018-07-17T04:56:34.277Z,18.68
2018-07-17T04:59:01.282Z,18.74
2018-07-17T05:01:28.551Z,18.77
2018-07-17T05:03:55.493Z,18.81
2018-07-17T05:06:22.490Z,18.85
2018-07-17T05:08:49.464Z,18.92
2018-07-17T05:11:16.489Z,18.96
2018-07-17T05:13:43.457Z,19.01
2018-07-17T05:16:10.449Z,19.10
2018-07-17T05:18:37.417Z,19.16
2018-07-17T05:21:04.394Z,19.23
2018-07-17T05:23:31.425Z,19.29
2018-07-17T05:25:58.626Z,19.36
2018-07-17T05:28:25.638Z,19.43
2018-07-17T05:30:53.593Z,19.51
2018-07-17T05:33:20.605Z,19.61
2018-07-17T05:35:47.581Z,19.68
2018-07-17T05:38:14.589Z,19.78
2018-07-17T05:40:41.748Z,19.86
2018-07-17T05:43:08.744Z,19.98
2018-07-17T05:45:35.740Z,20.02
2018-07-17T05:48:02.766Z,20.06
2018-07-17T05:50:29.753Z,20.14
2018-07-17T05:52:56.837Z,20.15
2018-07-17T05:55:24.001Z,20.21
2018-07-17T05:57:51.717Z,20.27
2018-07-17T06:00:19.239Z,20.37
2018-07-17T06:02:46.250Z,20.43
2018-07-17T06:05:13.257Z,20.49
2018-07-17T06:07:40.261Z,20.55
2018-07-17T06:10:07.362Z,20.60
2018-07-17T06:12:34.349Z,20.65
2018-07-17T06:15:01.313Z,20.71
2018-07-17T06:17:28.309Z,20.79
2018-07-17T06:19:55.285Z,20.86
2018-07-17T06:22:22.344Z,20.96
2018-07-17T06:24:49.338Z,21.03
2018-07-17T06:27:16.721Z,21.10
2018-07-17T06:29:43.699Z,21.17
2018-07-17T06:32:10.681Z,21.23
2018-07-17T06:34:37.674Z,21.29
2018-07-17T06:37:04.894Z,21.37
2018-07-17T06:39:31.926Z,21.45
2018-07-17T06:41:58.970Z,21.53
2018-07-17T06:44:25.977Z,21.62
2018-07-17T06:46:52.952Z,21.69
2018-07-17T06:49:20.029Z,21.78
2018-07-17T06:51:47.102Z,21.87
2018-07-17T06:54:14.081Z,21.94
2018-07-17T06:56:41.090Z,22.04
2018-07-17T06:59:08.133Z,22.15
2018-07-17T07:01:35.138Z,22.23
2018-07-17T07:04:02.205Z,22.30
2018-07-17T07:09:27.283Z,22.49
2018-07-17T07:11:54.265Z,22.54
2018-07-17T07:14:21.580Z,22.60
2018-07-17T07:16:48.562Z,22.64
2018-07-17T07:19:15.704Z,22.70
2018-07-17T07:21:42.702Z,22.79
2018-07-17T07:24:09.747Z,22.83
2018-07-17T07:26:36.809Z,22.89
2018-07-17T07:29:03.819Z,22.93
2018-07-17T07:31:30.810Z,23.00
2018-07-17T07:33:57.822Z,23.07
2018-07-17T07:36:24.865Z,23.13
2018-07-17T07:38:51.847Z,23.21
2018-07-17T07:41:18.805Z,23.27
2018-07-17T07:43:45.808Z,23.30
2018-07-17T07:46:12.782Z,23.35
2018-07-17T07:48:39.750Z,23.41
2018-07-17T07:51:07.388Z,23.47
2018-07-17T07:53:34.673Z,23.58
2018-07-17T07:56:01.915Z,23.65
2018-07-17T07:58:28.940Z,23.78
2018-07-17T08:00:55.922Z,23.91
2018-07-17T08:03:23.101Z,24.05
2018-07-17T08:05:50.101Z,24.20
2018-07-17T08:08:17.254Z,24.29
2018-07-17T08:10:44.254Z,24.36
2018-07-17T08:13:11.244Z,24.43
2018-07-17T08:15:38.509Z,24.47
2018-07-17T08:18:05.670Z,24.55
2018-07-17T08:20:32.714Z,24.54
2018-07-17T08:22:59.773Z,24.63
2018-07-17T08:25:27.901Z,24.68
2018-07-17T08:27:54.885Z,24.72
2018-07-17T08:30:22.929Z,24.74
2018-07-17T08:32:49.959Z,24.85
2018-07-17T08:35:16.979Z,24.84
2018-07-17T08:37:43.972Z,24.86
2018-07-17T08:40:10.946Z,24.90
2018-07-17T08:42:37.912Z,24.96
2018-07-17T08:45:05.116Z,25.02
2018-07-17T08:47:32.116Z,25.13
2018-07-17T08:49:59.149Z,25.18
2018-07-17T08:52:26.117Z,25.17
2018-07-17T08:54:53.120Z,25.24
2018-07-17T08:57:20.121Z,25.29
2018-07-17T08:59:47.125Z,25.34
2018-07-17T09:02:14.118Z,25.43
2018-07-17T09:04:41.195Z,25.51
2018-07-17T09:07:08.244Z,25.55
2018-07-17T09:09:35.605Z,25.60
2018-07-17T09:12:02.601Z,25.70
2018-07-17T09:14:29.685Z,25.81
2018-07-17T09:16:57.662Z,25.80
2018-07-17T09:19:24.700Z,25.84
2018-07-17T09:21:53.634Z,25.85
2018-07-17T09:24:20.837Z,25.94
2018-07-17T09:26:47.985Z,26.04
2018-07-17T09:29:15.457Z,26.10
2018-07-17T09:31:42.720Z,26.11
2018-07-17T09:34:09.749Z,26.15
2018-07-17T09:36:36.888Z,26.23
2018-07-17T09:39:06.298Z,26.28
2018-07-17T09:41:33.365Z,26.34
2018-07-17T09:44:00.338Z,26.41
2018-07-17T09:46:27.369Z,26.45
2018-07-17T09:48:55.047Z,26.52
2018-07-17T09:51:22.037Z,26.56
2018-07-17T09:53:49.037Z,26.62
2018-07-17T09:56:16.134Z,26.64
2018-07-17T09:58:43.189Z,26.76
2018-07-17T10:01:15.930Z,26.82
2018-07-17T10:03:42.939Z,26.87
2018-07-17T10:06:09.941Z,26.90
2018-07-17T10:08:36.926Z,26.95
2018-07-17T10:11:03.947Z,27.08
2018-07-17T10:13:31.005Z,27.13
2018-07-17T10:15:58.006Z,27.18
2018-07-17T10:18:25.017Z,27.27
2018-07-17T10:20:52.043Z,27.32
2018-07-17T10:23:19.039Z,27.40
2018-07-17T10:25:46.053Z,27.43
2018-07-17T10:28:13.261Z,27.48
2018-07-17T10:30:40.265Z,27.58
2018-07-17T10:33:07.265Z,27.66
2018-07-17T10:35:34.646Z,27.72
2018-07-17T10:38:01.798Z,27.76
2018-07-17T10:40:28.827Z,27.79
2018-07-17T10:42:55.820Z,27.85
2018-07-17T10:45:22.845Z,27.90
2018-07-17T10:47:49.836Z,27.92
2018-07-17T10:50:16.961Z,27.97
2018-07-17T10:52:43.944Z,28.05
2018-07-17T10:55:10.963Z,28.06
2018-07-17T10:57:38.001Z,28.03
2018-07-17T11:00:04.998Z,28.06
2018-07-17T11:02:32.657Z,28.08
2018-07-17T11:04:59.617Z,28.13
2018-07-17T11:07:27.130Z,28.20
2018-07-17T11:09:54.094Z,28.27
2018-07-17T11:12:21.753Z,28.31
2018-07-17T11:14:48.955Z,28.29
2018-07-17T11:17:15.953Z,28.32
2018-07-17T11:19:42.937Z,28.38
2018-07-17T11:22:10.131Z,28.41
2018-07-17T11:24:37.105Z,28.42
2018-07-17T11:27:04.941Z,28.41
2018-07-17T11:29:31.932Z,28.44
2018-07-17T11:31:59.753Z,28.45
2018-07-17T11:34:26.777Z,28.56
2018-07-17T11:36:53.774Z,28.62
2018-07-17T11:39:20.832Z,28.69
2018-07-17T11:41:47.821Z,28.79
2018-07-17T11:44:14.917Z,28.76
2018-07-17T11:46:42.314Z,28.86
2018-07-17T11:49:09.301Z,28.91
2018-07-17T11:51:36.306Z,28.89
2018-07-17T11:54:03.292Z,28.97
2018-07-17T11:56:30.752Z,29.01
2018-07-17T11:58:58.826Z,28.99
2018-07-17T12:01:25.797Z,28.99
2018-07-17T12:03:52.812Z,29.00
2018-07-17T12:06:19.904Z,29.06
2018-07-17T12:08:46.925Z,29.13
2018-07-17T12:11:13.972Z,29.18
2018-07-17T12:13:40.974Z,29.14
2018-07-17T12:16:07.989Z,29.11
2018-07-17T12:18:35.054Z,29.13
2018-07-17T12:21:02.080Z,29.15
2018-07-17T12:23:29.101Z,29.13
2018-07-17T12:25:56.104Z,29.17
2018-07-17T12:28:23.477Z,29.25
2018-07-17T12:30:50.568Z,29.27
2018-07-17T12:33:17.569Z,29.30
2018-07-17T12:35:44.716Z,29.33
2018-07-17T12:38:11.722Z,29.41
2018-07-17T12:40:38.699Z,29.45
2018-07-17T12:43:06.689Z,29.43
2018-07-17T12:45:33.686Z,29.46
2018-07-17T12:48:00.958Z,29.48
2018-07-17T12:50:28.540Z,29.42
2018-07-17T12:52:55.848Z,29.45
2018-07-17T12:55:22.913Z,29.45
2018-07-17T12:57:50.050Z,29.49
2018-07-17T13:00:16.996Z,29.47
2018-07-17T13:02:44.031Z,29.42
2018-07-17T13:05:11.041Z,29.42
2018-07-17T13:07:38.007Z,29.50
2018-07-17T13:10:05.549Z,29.57
2018-07-17T13:12:32.577Z,29.58
2018-07-17T13:14:59.566Z,29.62
2018-07-17T13:17:26.665Z,29.59
2018-07-17T13:19:53.689Z,29.60
2018-07-17T13:22:20.685Z,29.63
2018-07-17T13:24:47.677Z,29.68
2018-07-17T13:27:14.748Z,29.67
2018-07-17T13:29:41.777Z,29.68
2018-07-17T13:32:09.047Z,29.72
2018-07-17T13:34:36.100Z,29.72
2018-07-17T13:37:03.106Z,29.63
2018-07-17T13:39:30.125Z,29.56
2018-07-17T13:41:57.105Z,29.63
2018-07-17T13:44:24.132Z,29.71
2018-07-17T13:46:51.369Z,29.72
2018-07-17T13:49:18.589Z,29.77
2018-07-17T13:51:45.593Z,29.82
2018-07-17T13:54:12.580Z,29.84
2018-07-17T13:56:39.553Z,29.92
2018-07-17T13:59:06.549Z,29.95
2018-07-17T14:01:33.509Z,30.02
2018-07-17T14:04:00.517Z,29.97
2018-07-17T14:06:27.490Z,29.99
2018-07-17T14:08:54.470Z,29.98
2018-07-17T14:11:21.613Z,29.95
2018-07-17T14:13:48.637Z,29.96
2018-07-17T14:16:15.605Z,29.97
2018-07-17T14:18:42.597Z,29.98
2018-07-17T14:21:09.560Z,29.99
2018-07-17T14:23:36.530Z,29.94
2018-07-17T14:26:03.523Z,29.95
2018-07-17T14:28:30.527Z,29.95
2018-07-17T14:30:57.520Z,29.89
2018-07-17T14:33:24.528Z,29.86
2018-07-17T14:35:51.558Z,29.81
2018-07-17T14:38:18.546Z,29.79
2018-07-17T14:40:45.608Z,29.76
2018-07-17T14:43:19.478Z,29.81
2018-07-17T14:45:46.448Z,29.70
2018-07-17T14:48:13.456Z,29.61
2018-07-17T14:50:40.449Z,29.51
2018-07-17T14:53:07.425Z,29.48
2018-07-17T14:55:34.445Z,29.47
2018-07-17T14:58:01.441Z,29.43
2018-07-17T15:00:28.490Z,29.44
2018-07-17T15:02:55.529Z,29.47
2018-07-17T15:05:22.541Z,29.39
2018-07-17T15:07:49.585Z,29.30
2018-07-17T15:10:16.594Z,29.31
2018-07-17T15:12:43.628Z,29.29
2018-07-17T15:15:10.809Z,29.28
2018-07-17T15:17:37.772Z,29.27
2018-07-17T15:20:04.849Z,29.28
2018-07-17T15:22:31.884Z,29.30
2018-07-17T15:24:59.195Z,29.29
2018-07-17T15:27:26.802Z,29.20
2018-07-17T15:29:53.782Z,29.21
2018-07-17T15:32:20.933Z,29.20
2018-07-17T15:34:48.041Z,29.18
2018-07-17T15:37:15.041Z,29.20
2018-07-17T15:39:42.016Z,29.22
2018-07-17T15:42:09.013Z,29.19
2018-07-17T15:44:36.033Z,29.20
2018-07-17T15:47:03.020Z,29.21
2018-07-17T15:49:30.053Z,29.24
2018-07-17T15:51:57.081Z,29.18
2018-07-17T15:54:24.073Z,29.17
2018-07-17T15:56:51.113Z,29.14
2018-07-17T15:59:19.113Z,29.07
2018-07-17T16:01:46.213Z,29.08
2018-07-17T16:04:13.281Z,29.04
2018-07-17T16:06:40.310Z,29.03
2018-07-17T16:09:07.663Z,29.02
2018-07-17T16:11:34.947Z,29.05
2018-07-17T16:14:02.357Z,29.02
2018-07-17T16:16:28.985Z,29.01
2018-07-17T16:18:56.058Z,28.98
2018-07-17T16:21:23.117Z,28.94
2018-07-17T16:23:50.173Z,28.92
2018-07-17T16:26:17.370Z,28.93
2018-07-17T16:28:44.341Z,28.91
2018-07-17T16:31:11.405Z,28.87
2018-07-17T16:33:38.541Z,28.92
2018-07-17T16:36:05.560Z,28.91
2018-07-17T16:38:32.556Z,28.87
2018-07-17T16:40:59.520Z,28.85
2018-07-17T16:43:26.529Z,28.87
2018-07-17T16:45:53.647Z,28.84
2018-07-17T16:48:20.649Z,28.81
2018-07-17T16:50:47.672Z,28.82
2018-07-17T16:53:14.781Z,28.81
2018-07-17T16:55:41.757Z,28.82
2018-07-17T16:58:08.749Z,28.82
2018-07-17T17:00:35.932Z,28.81
2018-07-17T17:03:02.916Z,28.79
2018-07-17T17:05:29.921Z,28.79
2018-07-17T17:07:56.925Z,28.76
2018-07-17T17:10:23.997Z,28.73
2018-07-17T17:12:51.633Z,28.68
2018-07-17T17:15:18.582Z,28.64
2018-07-17T17:17:46.066Z,28.60
2018-07-17T17:20:13.086Z,28.57
2018-07-17T17:22:40.069Z,28.53
2018-07-17T17:25:07.084Z,28.51
2018-07-17T17:27:34.091Z,28.50
2018-07-17T17:30:01.067Z,28.47
2018-07-17T17:32:28.233Z,28.47
2018-07-17T17:34:55.237Z,28.47
2018-07-17T17:37:22.213Z,28.45
2018-07-17T17:39:49.228Z,28.48
2018-07-17T17:42:16.210Z,28.45
2018-07-17T17:44:43.861Z,28.46
2018-07-17T17:47:10.881Z,28.48
2018-07-17T17:49:37.951Z,28.47
2018-07-17T17:52:04.931Z,28.46
2018-07-17T17:54:31.938Z,28.46
2018-07-17T17:56:58.978Z,28.51
2018-07-17T17:59:26.005Z,28.58
2018-07-17T18:01:52.981Z,28.57
2018-07-17T18:04:19.956Z,28.46
2018-07-17T18:06:47.062Z,28.35
2018-07-17T18:09:14.455Z,28.19
2018-07-17T18:11:41.461Z,28.13
2018-07-17T18:14:08.483Z,28.01
2018-07-17T18:16:35.537Z,27.88
2018-07-17T18:19:02.530Z,27.76
2018-07-17T18:21:29.522Z,27.67
2018-07-17T18:23:56.525Z,27.56
2018-07-17T18:26:23.546Z,27.45
2018-07-17T18:28:50.514Z,27.34
2018-07-17T18:31:17.550Z,27.23
2018-07-17T18:33:44.585Z,27.14
2018-07-17T18:36:11.565Z,27.07
2018-07-17T18:38:38.542Z,27.00
2018-07-17T18:41:05.538Z,26.95
2018-07-17T18:43:32.545Z,26.89
2018-07-17T18:45:59.547Z,26.80
2018-07-17T18:48:26.549Z,26.74
2018-07-17T18:50:53.508Z,26.68
2018-07-17T18:53:20.685Z,26.62
2018-07-17T18:55:47.682Z,26.58
2018-07-17T18:58:14.749Z,26.52
2018-07-17T19:00:41.793Z,26.45
2018-07-17T19:03:08.786Z,26.41
2018-07-17T19:05:36.037Z,26.35
2018-07-17T19:08:03.002Z,26.26
2018-07-17T19:10:29.995Z,26.19
2018-07-17T19:12:56.961Z,26.08
2018-07-17T19:15:23.960Z,25.84
2018-07-17T19:17:51.025Z,25.59
2018-07-17T19:20:18.014Z,25.38
2018-07-17T19:22:45.021Z,25.22
2018-07-17T19:25:12.042Z,25.07
2018-07-17T19:27:39.037Z,24.89
2018-07-17T19:30:06.146Z,24.72
2018-07-17T19:32:33.177Z,24.57
2018-07-17T19:35:00.153Z,24.43
2018-07-17T19:37:27.301Z,24.25
2018-07-17T19:39:54.353Z,24.14
2018-07-17T19:42:21.333Z,23.99
2018-07-17T19:44:48.394Z,23.87
2018-07-17T19:47:15.437Z,23.79
2018-07-17T19:49:42.386Z,23.73
2018-07-17T19:52:09.374Z,23.63
2018-07-17T19:54:36.345Z,23.55
2018-07-17T19:57:03.841Z,23.45
2018-07-17T19:59:30.869Z,23.41
2018-07-17T20:01:57.944Z,23.34
2018-07-17T20:04:25.072Z,23.29
2018-07-17T20:06:52.066Z,23.24
2018-07-17T20:09:19.640Z,23.19
2018-07-17T20:11:46.660Z,23.13
2018-07-17T20:14:13.665Z,23.10
2018-07-17T20:16:40.757Z,23.08
2018-07-17T20:19:08.321Z,23.06
2018-07-17T20:21:35.327Z,23.05
2018-07-17T20:24:02.355Z,22.99
2018-07-17T20:26:29.374Z,22.92
2018-07-17T20:28:56.390Z,22.90
2018-07-17T20:31:23.387Z,22.86
2018-07-17T20:33:50.535Z,22.80
2018-07-17T20:36:18.317Z,22.79
2018-07-17T20:38:45.285Z,22.75
2018-07-17T20:41:12.286Z,22.72
2018-07-17T20:43:39.293Z,22.72
2018-07-17T20:46:06.289Z,22.65
2018-07-17T20:48:33.365Z,22.59
2018-07-17T20:51:00.352Z,22.56
2018-07-17T20:53:27.981Z,22.54
2018-07-17T20:55:55.338Z,22.50
2018-07-17T20:58:22.337Z,22.45
2018-07-17T21:00:49.450Z,22.41
2018-07-17T21:03:16.507Z,22.40
2018-07-17T21:05:43.505Z,22.37
2018-07-17T21:08:10.489Z,22.34
2018-07-17T21:10:37.489Z,22.32
2018-07-17T21:13:04.756Z,22.29
2018-07-17T21:15:31.697Z,22.27
2018-07-17T21:17:58.708Z,22.26
2018-07-17T21:20:25.723Z,22.22
2018-07-17T21:22:52.729Z,22.21
2018-07-17T21:25:19.749Z,22.18
2018-07-17T21:27:46.719Z,22.12
2018-07-17T21:30:13.720Z,22.06
2018-07-17T21:32:40.694Z,22.02
2018-07-17T21:35:07.953Z,21.98
2018-07-17T21:37:34.992Z,21.94
2018-07-17T21:40:02.070Z,21.89
2018-07-17T21:42:29.053Z,21.82
2018-07-17T21:44:56.063Z,21.74
2018-07-17T21:47:23.093Z,21.69
2018-07-17T21:49:50.140Z,21.64
2018-07-17T21:52:17.192Z,21.59
2018-07-17T21:54:44.326Z,21.56
2018-07-17T21:57:11.381Z,21.52
2018-07-17T21:59:38.577Z,21.54
2018-07-17T22:02:05.738Z,21.54
2018-07-17T22:04:33.077Z,21.49
2018-07-17T22:07:00.039Z,21.44
2018-07-17T22:09:27.012Z,21.40
2018-07-17T22:11:54.029Z,21.41
2018-07-17T22:14:21.041Z,21.37
2018-07-17T22:16:48.017Z,21.36
2018-07-17T22:19:14.991Z,21.35
2018-07-17T22:21:42.001Z,21.32
2018-07-17T22:24:09.029Z,21.29
2018-07-17T22:26:36.030Z,21.32
2018-07-17T22:29:03.083Z,21.31
2018-07-17T22:31:30.145Z,21.28
2018-07-17T22:33:57.500Z,21.27
2018-07-17T22:36:24.617Z,21.24
2018-07-17T22:38:51.621Z,21.24
2018-07-17T22:41:18.622Z,21.20
2018-07-17T22:43:45.733Z,21.19
2018-07-17T22:46:12.729Z,21.17
2018-07-17T22:48:39.757Z,21.15
2018-07-17T22:51:06.777Z,21.16
2018-07-17T22:53:33.748Z,21.14
2018-07-17T22:56:00.741Z,21.06
2018-07-17T22:58:27.769Z,21.07
2018-07-17T23:00:54.904Z,21.03
2018-07-17T23:03:21.896Z,21.01
2018-07-17T23:05:48.945Z,20.97
2018-07-17T23:08:16.009Z,20.93
2018-07-17T23:10:43.021Z,20.87
2018-07-17T23:13:10.245Z,20.81
2018-07-17T23:15:37.311Z,20.79
2018-07-17T23:18:04.557Z,20.76
2018-07-17T23:20:31.545Z,20.70
2018-07-17T23:22:59.302Z,20.65
2018-07-17T23:25:28.520Z,20.62
2018-07-17T23:27:56.312Z,20.58
2018-07-17T23:30:23.409Z,20.50
2018-07-17T23:32:50.872Z,20.46
2018-07-17T23:35:18.993Z,20.43
2018-07-17T23:37:46.085Z,20.38
2018-07-17T23:40:13.460Z,20.30
2018-07-17T23:42:40.577Z,20.24
2018-07-17T23:45:07.850Z,20.18
2018-07-17T23:47:35.020Z,20.15
2018-07-17T23:50:02.090Z,20.09
2018-07-17T23:52:29.094Z,20.03
2018-07-17T23:54:56.128Z,19.97
2018-07-17T23:57:23.498Z,19.93
2018-07-17T23:59:50.534Z,19.91
